sensor_id;sensor_type;location;lat;lon;timestamp;temperature;humidity
3566;DHT22;1797;51.844;7.684;2023-03-14T00:00:33;11.30;99.90
3566;DHT22;1797;51.844;7.684;2023-03-14T00:02:59;11.30;99.90
3566;DHT22;1797;51.844;7.684;2023-03-14T00:05:25;11.30;99.90
3566;DHT22;1797;51.844;7.684;2023-03-14T00:07:51;11.30;99.90
3566;DHT22;1797;51.844;7.684;2023-03-14T00:10:16;11.20;99.90
3566;DHT22;1797;51.844;7.684;2023-03-14T00:12:43;11.20;99.90
3566;DHT22;1797;51.844;7.684;2023-03-14T00:15:09;11.20;99.90
3566;DHT22;1797;51.844;7.684;2023-03-14T00:17:35;11.20;99.90
3566;DHT22;1797;51.844;7.684;2023-03-14T00:20:02;11.20;99.90
3566;DHT22;1797;51.844;7.684;2023-03-14T00:22:34;11.20;99.90
3566;DHT22;1797;51.844;7.684;2023-03-14T00:25:00;11.10;99.90
3566;DHT22;1797;51.844;7.684;2023-03-14T00:27:26;11.10;99.90
3566;DHT22;1797;51.844;7.684;2023-03-14T00:29:52;11.10;99.90
3566;DHT22;1797;51.844;7.684;2023-03-14T00:32:17;11.00;99.90
3566;DHT22;1797;51.844;7.684;2023-03-14T00:34:43;11.10;99.90
3566;DHT22;1797;51.844;7.684;2023-03-14T00:37:09;11.00;99.90
3566;DHT22;1797;51.844;7.684;2023-03-14T00:39:34;11.00;99.90
3566;DHT22;1797;51.844;7.684;2023-03-14T00:42:00;11.00;99.90
3566;DHT22;1797;51.844;7.684;2023-03-14T00:44:25;10.80;99.90
3566;DHT22;1797;51.844;7.684;2023-03-14T00:46:51;10.90;99.90
3566;DHT22;1797;51.844;7.684;2023-03-14T00:49:17;10.90;99.90
3566;DHT22;1797;51.844;7.684;2023-03-14T00:51:42;10.80;99.90
3566;DHT22;1797;51.844;7.684;2023-03-14T00:54:08;10.80;99.90
3566;DHT22;1797;51.844;7.684;2023-03-14T00:56:33;10.80;99.90
3566;DHT22;1797;51.844;7.684;2023-03-14T00:58:59;10.80;99.90
3566;DHT22;1797;51.844;7.684;2023-03-14T01:01:25;10.80;99.90
3566;DHT22;1797;51.844;7.684;2023-03-14T01:03:52;10.80;99.90
3566;DHT22;1797;51.844;7.684;2023-03-14T01:06:20;10.80;99.90
3566;DHT22;1797;51.844;7.684;2023-03-14T01:08:46;10.80;99.90
3566;DHT22;1797;51.844;7.684;2023-03-14T01:11:15;10.80;99.90
3566;DHT22;1797;51.844;7.684;2023-03-14T01:13:42;10.90;99.90
3566;DHT22;1797;51.844;7.684;2023-03-14T01:16:09;10.90;99.90
3566;DHT22;1797;51.844;7.684;2023-03-14T01:18:36;10.90;99.90
3566;DHT22;1797;51.844;7.684;2023-03-14T01:21:27;11.00;99.90
3566;DHT22;1797;51.844;7.684;2023-03-14T01:23:54;11.00;99.90
3566;DHT22;1797;51.844;7.684;2023-03-14T01:26:22;11.10;99.90
3566;DHT22;1797;51.844;7.684;2023-03-14T01:28:49;11.10;99.90
3566;DHT22;1797;51.844;7.684;2023-03-14T01:31:15;11.20;99.90
3566;DHT22;1797;51.844;7.684;2023-03-14T01:33:41;11.20;99.90
3566;DHT22;1797;51.844;7.684;2023-03-14T01:36:07;11.30;99.90
3566;DHT22;1797;51.844;7.684;2023-03-14T01:38:34;11.30;99.90
3566;DHT22;1797;51.844;7.684;2023-03-14T01:41:01;11.30;99.90
3566;DHT22;1797;51.844;7.684;2023-03-14T01:43:27;11.20;99.90
3566;DHT22;1797;51.844;7.684;2023-03-14T01:51:11;10.70;99.90
3566;DHT22;1797;51.844;7.684;2023-03-14T01:53:38;10.50;99.90
3566;DHT22;1797;51.844;7.684;2023-03-14T01:56:05;10.40;99.90
3566;DHT22;1797;51.844;7.684;2023-03-14T01:58:32;10.20;99.90
3566;DHT22;1797;51.844;7.684;2023-03-14T02:01:01;10.00;99.90
3566;DHT22;1797;51.844;7.684;2023-03-14T02:03:28;10.00;99.90
3566;DHT22;1797;51.844;7.684;2023-03-14T02:05:59;9.80;99.90
3566;DHT22;1797;51.844;7.684;2023-03-14T02:08:27;9.70;99.90
3566;DHT22;1797;51.844;7.684;2023-03-14T02:10:53;9.60;99.90
3566;DHT22;1797;51.844;7.684;2023-03-14T02:13:20;9.60;99.90
3566;DHT22;1797;51.844;7.684;2023-03-14T02:15:47;9.50;99.90
3566;DHT22;1797;51.844;7.684;2023-03-14T02:18:14;9.50;99.90
3566;DHT22;1797;51.844;7.684;2023-03-14T02:20:55;9.50;99.90
3566;DHT22;1797;51.844;7.684;2023-03-14T02:24:07;9.50;99.90
3566;DHT22;1797;51.844;7.684;2023-03-14T02:27:07;9.50;99.90
3566;DHT22;1797;51.844;7.684;2023-03-14T02:29:36;9.40;99.90
3566;DHT22;1797;51.844;7.684;2023-03-14T02:32:04;9.40;99.90
3566;DHT22;1797;51.844;7.684;2023-03-14T02:34:31;9.40;99.90
3566;DHT22;1797;51.844;7.684;2023-03-14T02:36:57;9.30;99.90
3566;DHT22;1797;51.844;7.684;2023-03-14T02:39:43;9.30;99.90
3566;DHT22;1797;51.844;7.684;2023-03-14T02:42:10;9.20;99.90
3566;DHT22;1797;51.844;7.684;2023-03-14T02:44:46;9.20;99.90
3566;DHT22;1797;51.844;7.684;2023-03-14T02:47:12;9.20;99.90
3566;DHT22;1797;51.844;7.684;2023-03-14T02:49:38;9.20;99.90
3566;DHT22;1797;51.844;7.684;2023-03-14T02:52:03;9.10;99.90
3566;DHT22;1797;51.844;7.684;2023-03-14T02:54:29;9.10;99.90
3566;DHT22;1797;51.844;7.684;2023-03-14T02:56:54;9.20;99.90
3566;DHT22;1797;51.844;7.684;2023-03-14T02:59:20;9.10;99.90
3566;DHT22;1797;51.844;7.684;2023-03-14T03:01:46;9.10;99.90
3566;DHT22;1797;51.844;7.684;2023-03-14T03:04:11;9.10;99.90
3566;DHT22;1797;51.844;7.684;2023-03-14T03:06:37;9.10;99.90
3566;DHT22;1797;51.844;7.684;2023-03-14T03:09:02;9.10;99.90
3566;DHT22;1797;51.844;7.684;2023-03-14T03:11:28;9.10;99.90
3566;DHT22;1797;51.844;7.684;2023-03-14T03:13:54;9.10;99.90
3566;DHT22;1797;51.844;7.684;2023-03-14T03:16:19;9.20;99.90
3566;DHT22;1797;51.844;7.684;2023-03-14T03:18:45;9.20;99.90
3566;DHT22;1797;51.844;7.684;2023-03-14T03:21:10;9.20;99.90
3566;DHT22;1797;51.844;7.684;2023-03-14T03:23:36;9.20;99.90
3566;DHT22;1797;51.844;7.684;2023-03-14T03:26:02;9.20;99.90
3566;DHT22;1797;51.844;7.684;2023-03-14T03:28:28;9.20;99.90
3566;DHT22;1797;51.844;7.684;2023-03-14T03:30:54;9.20;99.90
3566;DHT22;1797;51.844;7.684;2023-03-14T03:33:19;9.20;99.90
3566;DHT22;1797;51.844;7.684;2023-03-14T03:35:50;9.20;99.90
3566;DHT22;1797;51.844;7.684;2023-03-14T03:38:16;9.20;99.90
3566;DHT22;1797;51.844;7.684;2023-03-14T03:40:42;9.20;99.90
3566;DHT22;1797;51.844;7.684;2023-03-14T03:43:08;9.10;99.90
3566;DHT22;1797;51.844;7.684;2023-03-14T03:45:34;9.10;99.90
3566;DHT22;1797;51.844;7.684;2023-03-14T03:48:00;9.10;99.90
3566;DHT22;1797;51.844;7.684;2023-03-14T03:50:25;9.20;99.90
3566;DHT22;1797;51.844;7.684;2023-03-14T03:52:51;9.20;99.90
3566;DHT22;1797;51.844;7.684;2023-03-14T03:55:16;9.20;99.90
3566;DHT22;1797;51.844;7.684;2023-03-14T03:57:42;9.20;99.90
3566;DHT22;1797;51.844;7.684;2023-03-14T04:00:09;9.20;99.90
3566;DHT22;1797;51.844;7.684;2023-03-14T04:02:37;9.20;99.90
3566;DHT22;1797;51.844;7.684;2023-03-14T04:05:03;9.30;99.90
3566;DHT22;1797;51.844;7.684;2023-03-14T04:07:31;9.30;99.90
3566;DHT22;1797;51.844;7.684;2023-03-14T04:09:57;9.20;99.90
3566;DHT22;1797;51.844;7.684;2023-03-14T04:12:22;9.20;99.90
3566;DHT22;1797;51.844;7.684;2023-03-14T04:14:48;9.20;99.90
3566;DHT22;1797;51.844;7.684;2023-03-14T04:17:14;9.20;99.90
3566;DHT22;1797;51.844;7.684;2023-03-14T04:19:39;9.10;99.90
3566;DHT22;1797;51.844;7.684;2023-03-14T04:22:05;9.20;99.90
3566;DHT22;1797;51.844;7.684;2023-03-14T04:24:30;9.10;99.90
3566;DHT22;1797;51.844;7.684;2023-03-14T04:26:56;9.10;99.90
3566;DHT22;1797;51.844;7.684;2023-03-14T04:29:22;9.10;99.90
3566;DHT22;1797;51.844;7.684;2023-03-14T04:31:47;9.10;99.90
3566;DHT22;1797;51.844;7.684;2023-03-14T04:34:13;9.20;99.90
3566;DHT22;1797;51.844;7.684;2023-03-14T04:36:38;9.20;99.90
3566;DHT22;1797;51.844;7.684;2023-03-14T04:39:04;9.20;99.90
3566;DHT22;1797;51.844;7.684;2023-03-14T04:41:29;9.20;99.90
3566;DHT22;1797;51.844;7.684;2023-03-14T04:43:56;9.30;99.90
3566;DHT22;1797;51.844;7.684;2023-03-14T04:46:21;9.30;99.90
3566;DHT22;1797;51.844;7.684;2023-03-14T04:48:47;9.30;99.90
3566;DHT22;1797;51.844;7.684;2023-03-14T04:51:12;9.40;99.90
3566;DHT22;1797;51.844;7.684;2023-03-14T04:53:38;9.40;99.90
3566;DHT22;1797;51.844;7.684;2023-03-14T04:56:04;9.40;99.90
3566;DHT22;1797;51.844;7.684;2023-03-14T04:58:30;9.40;99.90
3566;DHT22;1797;51.844;7.684;2023-03-14T05:00:55;9.40;99.90
3566;DHT22;1797;51.844;7.684;2023-03-14T05:03:21;9.50;99.90
3566;DHT22;1797;51.844;7.684;2023-03-14T05:05:47;9.50;99.90
3566;DHT22;1797;51.844;7.684;2023-03-14T05:08:12;9.40;99.90
3566;DHT22;1797;51.844;7.684;2023-03-14T05:10:38;9.40;99.90
3566;DHT22;1797;51.844;7.684;2023-03-14T05:13:04;9.40;99.90
3566;DHT22;1797;51.844;7.684;2023-03-14T05:15:29;9.30;99.90
3566;DHT22;1797;51.844;7.684;2023-03-14T05:17:55;9.30;99.90
3566;DHT22;1797;51.844;7.684;2023-03-14T05:20:21;9.40;99.90
3566;DHT22;1797;51.844;7.684;2023-03-14T05:22:46;9.40;99.90
3566;DHT22;1797;51.844;7.684;2023-03-14T05:25:12;9.40;99.90
3566;DHT22;1797;51.844;7.684;2023-03-14T05:27:38;9.40;99.90
3566;DHT22;1797;51.844;7.684;2023-03-14T05:30:05;9.30;99.90
3566;DHT22;1797;51.844;7.684;2023-03-14T05:32:31;9.30;99.90
3566;DHT22;1797;51.844;7.684;2023-03-14T05:34:56;9.20;99.90
3566;DHT22;1797;51.844;7.684;2023-03-14T05:37:25;9.20;99.90
3566;DHT22;1797;51.844;7.684;2023-03-14T05:39:51;9.10;99.90
3566;DHT22;1797;51.844;7.684;2023-03-14T05:42:17;9.10;99.90
3566;DHT22;1797;51.844;7.684;2023-03-14T05:44:42;9.10;99.90
3566;DHT22;1797;51.844;7.684;2023-03-14T05:47:08;9.10;99.90
3566;DHT22;1797;51.844;7.684;2023-03-14T05:49:33;9.00;99.90
3566;DHT22;1797;51.844;7.684;2023-03-14T05:51:59;9.00;99.90
3566;DHT22;1797;51.844;7.684;2023-03-14T05:54:24;8.90;99.90
3566;DHT22;1797;51.844;7.684;2023-03-14T05:56:50;8.80;99.90
3566;DHT22;1797;51.844;7.684;2023-03-14T05:59:16;8.80;99.90
3566;DHT22;1797;51.844;7.684;2023-03-14T06:01:41;8.70;99.90
3566;DHT22;1797;51.844;7.684;2023-03-14T06:04:07;8.60;99.90
3566;DHT22;1797;51.844;7.684;2023-03-14T06:06:32;8.50;99.90
3566;DHT22;1797;51.844;7.684;2023-03-14T06:08:58;8.50;99.90
3566;DHT22;1797;51.844;7.684;2023-03-14T06:11:23;8.50;99.90
3566;DHT22;1797;51.844;7.684;2023-03-14T06:13:50;8.60;99.90
3566;DHT22;1797;51.844;7.684;2023-03-14T06:16:15;8.60;99.90
3566;DHT22;1797;51.844;7.684;2023-03-14T06:18:41;8.60;99.90
3566;DHT22;1797;51.844;7.684;2023-03-14T06:21:07;8.50;99.90
3566;DHT22;1797;51.844;7.684;2023-03-14T06:23:33;8.50;99.90
3566;DHT22;1797;51.844;7.684;2023-03-14T06:25:59;8.50;99.90
3566;DHT22;1797;51.844;7.684;2023-03-14T06:28:24;8.50;99.90
3566;DHT22;1797;51.844;7.684;2023-03-14T06:30:50;8.50;99.90
3566;DHT22;1797;51.844;7.684;2023-03-14T06:33:16;8.50;99.90
3566;DHT22;1797;51.844;7.684;2023-03-14T06:35:41;8.40;99.90
3566;DHT22;1797;51.844;7.684;2023-03-14T06:38:07;8.40;99.90
3566;DHT22;1797;51.844;7.684;2023-03-14T06:40:33;8.40;99.90
3566;DHT22;1797;51.844;7.684;2023-03-14T06:42:58;8.40;99.90
3566;DHT22;1797;51.844;7.684;2023-03-14T06:45:24;8.40;99.90
3566;DHT22;1797;51.844;7.684;2023-03-14T06:47:49;8.40;99.90
3566;DHT22;1797;51.844;7.684;2023-03-14T06:50:15;8.40;99.90
3566;DHT22;1797;51.844;7.684;2023-03-14T06:52:41;8.40;99.90
3566;DHT22;1797;51.844;7.684;2023-03-14T06:55:11;8.40;99.90
3566;DHT22;1797;51.844;7.684;2023-03-14T06:57:37;8.50;99.90
3566;DHT22;1797;51.844;7.684;2023-03-14T07:00:04;8.50;99.90
3566;DHT22;1797;51.844;7.684;2023-03-14T07:02:30;8.50;99.90
3566;DHT22;1797;51.844;7.684;2023-03-14T07:04:55;8.50;99.90
3566;DHT22;1797;51.844;7.684;2023-03-14T07:07:21;8.50;99.90
3566;DHT22;1797;51.844;7.684;2023-03-14T07:09:47;8.50;99.90
3566;DHT22;1797;51.844;7.684;2023-03-14T07:12:12;8.50;99.90
3566;DHT22;1797;51.844;7.684;2023-03-14T07:14:38;8.50;99.90
3566;DHT22;1797;51.844;7.684;2023-03-14T07:17:03;8.50;99.90
3566;DHT22;1797;51.844;7.684;2023-03-14T07:19:29;8.50;99.90
3566;DHT22;1797;51.844;7.684;2023-03-14T07:21:55;8.50;99.90
3566;DHT22;1797;51.844;7.684;2023-03-14T07:24:20;8.50;99.90
3566;DHT22;1797;51.844;7.684;2023-03-14T07:26:46;8.50;99.90
3566;DHT22;1797;51.844;7.684;2023-03-14T07:29:11;8.50;99.90
3566;DHT22;1797;51.844;7.684;2023-03-14T07:31:37;8.50;99.90
3566;DHT22;1797;51.844;7.684;2023-03-14T07:34:02;8.60;99.90
3566;DHT22;1797;51.844;7.684;2023-03-14T07:36:28;8.60;99.90
3566;DHT22;1797;51.844;7.684;2023-03-14T07:38:54;8.60;99.90
3566;DHT22;1797;51.844;7.684;2023-03-14T07:41:19;8.70;99.90
3566;DHT22;1797;51.844;7.684;2023-03-14T07:43:46;8.70;99.90
3566;DHT22;1797;51.844;7.684;2023-03-14T07:46:11;8.80;99.90
3566;DHT22;1797;51.844;7.684;2023-03-14T07:48:37;8.80;99.90
3566;DHT22;1797;51.844;7.684;2023-03-14T07:51:03;8.80;99.90
3566;DHT22;1797;51.844;7.684;2023-03-14T07:53:29;8.90;99.90
3566;DHT22;1797;51.844;7.684;2023-03-14T07:55:55;8.90;99.90
3566;DHT22;1797;51.844;7.684;2023-03-14T07:58:21;9.00;99.90
3566;DHT22;1797;51.844;7.684;2023-03-14T08:00:50;9.00;99.90
3566;DHT22;1797;51.844;7.684;2023-03-14T08:03:16;9.00;99.90
3566;DHT22;1797;51.844;7.684;2023-03-14T08:05:42;9.00;99.90
3566;DHT22;1797;51.844;7.684;2023-03-14T08:08:08;9.20;99.90
3566;DHT22;1797;51.844;7.684;2023-03-14T08:10:34;9.10;99.90
3566;DHT22;1797;51.844;7.684;2023-03-14T08:13:00;9.20;99.90
3566;DHT22;1797;51.844;7.684;2023-03-14T08:15:27;9.20;99.90
3566;DHT22;1797;51.844;7.684;2023-03-14T08:17:53;9.30;99.90
3566;DHT22;1797;51.844;7.684;2023-03-14T08:20:25;9.30;99.90
3566;DHT22;1797;51.844;7.684;2023-03-14T08:22:51;9.30;99.90
3566;DHT22;1797;51.844;7.684;2023-03-14T08:25:18;9.40;99.90
3566;DHT22;1797;51.844;7.684;2023-03-14T08:27:43;9.40;99.90
3566;DHT22;1797;51.844;7.684;2023-03-14T08:30:11;9.40;99.90
3566;DHT22;1797;51.844;7.684;2023-03-14T08:32:37;9.40;99.90
3566;DHT22;1797;51.844;7.684;2023-03-14T08:35:04;9.50;99.90
3566;DHT22;1797;51.844;7.684;2023-03-14T08:37:32;9.50;99.90
3566;DHT22;1797;51.844;7.684;2023-03-14T08:39:57;9.50;99.90
3566;DHT22;1797;51.844;7.684;2023-03-14T08:42:23;9.60;99.90
3566;DHT22;1797;51.844;7.684;2023-03-14T08:44:48;9.70;99.90
3566;DHT22;1797;51.844;7.684;2023-03-14T08:47:15;9.80;99.90
3566;DHT22;1797;51.844;7.684;2023-03-14T08:49:41;9.90;99.90
3566;DHT22;1797;51.844;7.684;2023-03-14T08:52:06;9.90;99.90
3566;DHT22;1797;51.844;7.684;2023-03-14T08:54:32;10.10;99.90
3566;DHT22;1797;51.844;7.684;2023-03-14T08:56:58;10.20;99.90
3566;DHT22;1797;51.844;7.684;2023-03-14T08:59:24;10.40;99.90
3566;DHT22;1797;51.844;7.684;2023-03-14T09:01:49;10.40;99.90
3566;DHT22;1797;51.844;7.684;2023-03-14T09:04:15;10.40;99.90
3566;DHT22;1797;51.844;7.684;2023-03-14T09:06:41;10.30;99.90
3566;DHT22;1797;51.844;7.684;2023-03-14T09:09:07;10.30;99.90
3566;DHT22;1797;51.844;7.684;2023-03-14T09:11:32;10.30;99.90
3566;DHT22;1797;51.844;7.684;2023-03-14T09:13:58;10.20;99.90
3566;DHT22;1797;51.844;7.684;2023-03-14T09:16:24;10.20;99.90
3566;DHT22;1797;51.844;7.684;2023-03-14T09:18:50;10.20;99.90
3566;DHT22;1797;51.844;7.684;2023-03-14T09:21:18;10.20;99.90
3566;DHT22;1797;51.844;7.684;2023-03-14T09:23:44;10.20;99.90
3566;DHT22;1797;51.844;7.684;2023-03-14T09:26:11;10.10;99.90
3566;DHT22;1797;51.844;7.684;2023-03-14T09:28:36;10.10;99.90
3566;DHT22;1797;51.844;7.684;2023-03-14T09:31:07;10.20;99.90
3566;DHT22;1797;51.844;7.684;2023-03-14T09:33:33;10.20;99.90
3566;DHT22;1797;51.844;7.684;2023-03-14T09:35:59;10.20;99.90
3566;DHT22;1797;51.844;7.684;2023-03-14T09:38:25;10.30;99.90
3566;DHT22;1797;51.844;7.684;2023-03-14T09:40:53;10.40;99.90
3566;DHT22;1797;51.844;7.684;2023-03-14T09:43:20;10.50;99.90
3566;DHT22;1797;51.844;7.684;2023-03-14T09:45:48;10.50;99.90
3566;DHT22;1797;51.844;7.684;2023-03-14T09:48:27;10.60;99.90
3566;DHT22;1797;51.844;7.684;2023-03-14T09:50:55;10.60;99.90
3566;DHT22;1797;51.844;7.684;2023-03-14T09:53:27;10.60;99.90
3566;DHT22;1797;51.844;7.684;2023-03-14T09:55:54;10.60;99.90
3566;DHT22;1797;51.844;7.684;2023-03-14T09:58:24;10.40;99.90
3566;DHT22;1797;51.844;7.684;2023-03-14T10:00:53;10.10;99.90
3566;DHT22;1797;51.844;7.684;2023-03-14T10:05:51;9.20;99.90
3566;DHT22;1797;51.844;7.684;2023-03-14T10:08:17;8.90;99.90
3566;DHT22;1797;51.844;7.684;2023-03-14T10:10:42;8.50;99.90
3566;DHT22;1797;51.844;7.684;2023-03-14T10:13:20;8.40;99.90
3566;DHT22;1797;51.844;7.684;2023-03-14T10:18:19;8.10;99.90
3566;DHT22;1797;51.844;7.684;2023-03-14T10:20:47;8.10;99.90
3566;DHT22;1797;51.844;7.684;2023-03-14T10:25:41;8.00;99.90
3566;DHT22;1797;51.844;7.684;2023-03-14T10:28:27;8.00;99.90
3566;DHT22;1797;51.844;7.684;2023-03-14T10:30:54;7.90;99.90
3566;DHT22;1797;51.844;7.684;2023-03-14T10:38:24;7.80;99.90
3566;DHT22;1797;51.844;7.684;2023-03-14T10:40:52;7.90;99.90
3566;DHT22;1797;51.844;7.684;2023-03-14T10:43:22;7.90;99.90
3566;DHT22;1797;51.844;7.684;2023-03-14T10:45:55;7.80;99.90
3566;DHT22;1797;51.844;7.684;2023-03-14T10:48:33;7.60;99.90
3566;DHT22;1797;51.844;7.684;2023-03-14T10:51:10;7.30;99.90
3566;DHT22;1797;51.844;7.684;2023-03-14T10:53:56;6.80;99.90
3566;DHT22;1797;51.844;7.684;2023-03-14T10:56:23;6.70;99.90
3566;DHT22;1797;51.844;7.684;2023-03-14T10:58:51;6.50;99.90
3566;DHT22;1797;51.844;7.684;2023-03-14T11:07:07;6.50;99.90
3566;DHT22;1797;51.844;7.684;2023-03-14T11:13:18;6.40;99.90
3566;DHT22;1797;51.844;7.684;2023-03-14T11:15:42;6.20;99.90
3566;DHT22;1797;51.844;7.684;2023-03-14T11:21:34;6.00;99.90
3566;DHT22;1797;51.844;7.684;2023-03-14T11:24:31;6.10;99.90
3566;DHT22;1797;51.844;7.684;2023-03-14T11:27:04;6.10;99.90
3566;DHT22;1797;51.844;7.684;2023-03-14T11:34:54;6.10;99.90
3566;DHT22;1797;51.844;7.684;2023-03-14T11:37:32;6.10;99.90
3566;DHT22;1797;51.844;7.684;2023-03-14T11:42:43;6.00;99.90
3566;DHT22;1797;51.844;7.684;2023-03-14T11:45:22;6.00;99.90
3566;DHT22;1797;51.844;7.684;2023-03-14T11:48:43;6.00;99.90
3566;DHT22;1797;51.844;7.684;2023-03-14T11:50:43;6.00;99.90
3566;DHT22;1797;51.844;7.684;2023-03-14T11:56:52;5.90;99.90
3566;DHT22;1797;51.844;7.684;2023-03-14T11:59:29;5.90;99.90
3566;DHT22;1797;51.844;7.684;2023-03-14T12:02:00;5.90;99.90
3566;DHT22;1797;51.844;7.684;2023-03-14T12:04:54;6.00;99.90
3566;DHT22;1797;51.844;7.684;2023-03-14T12:07:39;6.10;99.90
3566;DHT22;1797;51.844;7.684;2023-03-14T12:10:05;6.30;99.90
3566;DHT22;1797;51.844;7.684;2023-03-14T12:12:31;6.50;99.90
3566;DHT22;1797;51.844;7.684;2023-03-14T12:15:02;6.60;99.90
3566;DHT22;1797;51.844;7.684;2023-03-14T12:17:39;6.70;99.90
3566;DHT22;1797;51.844;7.684;2023-03-14T12:20:17;6.80;99.90
3566;DHT22;1797;51.844;7.684;2023-03-14T12:22:46;6.80;99.90
3566;DHT22;1797;51.844;7.684;2023-03-14T12:28:02;6.90;99.90
3566;DHT22;1797;51.844;7.684;2023-03-14T12:35:44;7.20;99.90
3566;DHT22;1797;51.844;7.684;2023-03-14T12:38:39;7.20;99.90
3566;DHT22;1797;51.844;7.684;2023-03-14T12:43:50;6.90;99.90
3566;DHT22;1797;51.844;7.684;2023-03-14T12:51:34;6.30;99.90
3566;DHT22;1797;51.844;7.684;2023-03-14T12:59:05;6.20;99.90
3566;DHT22;1797;51.844;7.684;2023-03-14T13:01:35;6.30;99.90
3566;DHT22;1797;51.844;7.684;2023-03-14T13:04:10;6.40;99.90
3566;DHT22;1797;51.844;7.684;2023-03-14T13:06:54;6.50;99.90
3566;DHT22;1797;51.844;7.684;2023-03-14T13:11:55;6.60;99.90
3566;DHT22;1797;51.844;7.684;2023-03-14T13:14:22;6.60;99.90
3566;DHT22;1797;51.844;7.684;2023-03-14T13:16:48;6.50;99.90
3566;DHT22;1797;51.844;7.684;2023-03-14T13:19:19;6.50;99.90
3566;DHT22;1797;51.844;7.684;2023-03-14T13:21:47;6.50;99.90
3566;DHT22;1797;51.844;7.684;2023-03-14T13:24:24;6.50;99.90
3566;DHT22;1797;51.844;7.684;2023-03-14T13:26:53;6.60;99.90
3566;DHT22;1797;51.844;7.684;2023-03-14T13:29:20;6.70;99.90
3566;DHT22;1797;51.844;7.684;2023-03-14T13:31:49;6.90;99.90
3566;DHT22;1797;51.844;7.684;2023-03-14T13:34:15;7.00;99.90
3566;DHT22;1797;51.844;7.684;2023-03-14T13:36:41;7.10;99.90
3566;DHT22;1797;51.844;7.684;2023-03-14T13:39:16;7.30;99.90
3566;DHT22;1797;51.844;7.684;2023-03-14T13:41:42;7.40;99.90
3566;DHT22;1797;51.844;7.684;2023-03-14T13:44:13;7.50;99.90
3566;DHT22;1797;51.844;7.684;2023-03-14T13:46:39;7.70;99.90
3566;DHT22;1797;51.844;7.684;2023-03-14T13:49:09;7.90;99.90
3566;DHT22;1797;51.844;7.684;2023-03-14T13:51:38;7.80;99.90
3566;DHT22;1797;51.844;7.684;2023-03-14T13:54:17;7.70;99.90
3566;DHT22;1797;51.844;7.684;2023-03-14T13:56:43;7.60;99.90
3566;DHT22;1797;51.844;7.684;2023-03-14T13:59:28;7.60;99.90
3566;DHT22;1797;51.844;7.684;2023-03-14T14:01:55;7.40;99.90
3566;DHT22;1797;51.844;7.684;2023-03-14T14:04:23;7.30;99.90
3566;DHT22;1797;51.844;7.684;2023-03-14T14:06:56;7.20;99.90
3566;DHT22;1797;51.844;7.684;2023-03-14T14:09:31;7.10;99.90
3566;DHT22;1797;51.844;7.684;2023-03-14T14:12:15;7.20;99.90
3566;DHT22;1797;51.844;7.684;2023-03-14T14:15:11;7.30;99.90
3566;DHT22;1797;51.844;7.684;2023-03-14T14:17:44;7.50;99.90
3566;DHT22;1797;51.844;7.684;2023-03-14T14:20:36;7.80;99.90
3566;DHT22;1797;51.844;7.684;2023-03-14T14:23:04;7.80;99.90
3566;DHT22;1797;51.844;7.684;2023-03-14T14:25:30;7.70;99.90
3566;DHT22;1797;51.844;7.684;2023-03-14T14:27:56;7.50;99.90
3566;DHT22;1797;51.844;7.684;2023-03-14T14:30:29;7.40;99.90
3566;DHT22;1797;51.844;7.684;2023-03-14T14:33:20;7.30;99.90
3566;DHT22;1797;51.844;7.684;2023-03-14T14:35:56;7.50;99.90
3566;DHT22;1797;51.844;7.684;2023-03-14T14:38:21;7.60;99.90
3566;DHT22;1797;51.844;7.684;2023-03-14T14:40:50;7.60;99.90
3566;DHT22;1797;51.844;7.684;2023-03-14T14:43:19;7.50;99.90
3566;DHT22;1797;51.844;7.684;2023-03-14T14:45:49;7.50;99.90
3566;DHT22;1797;51.844;7.684;2023-03-14T14:48:15;7.40;99.90
3566;DHT22;1797;51.844;7.684;2023-03-14T14:51:00;7.40;99.90
3566;DHT22;1797;51.844;7.684;2023-03-14T14:53:35;7.40;99.90
3566;DHT22;1797;51.844;7.684;2023-03-14T14:56:25;7.40;99.90
3566;DHT22;1797;51.844;7.684;2023-03-14T14:58:59;7.40;99.90
3566;DHT22;1797;51.844;7.684;2023-03-14T15:01:38;7.40;99.90
3566;DHT22;1797;51.844;7.684;2023-03-14T15:04:11;7.40;99.90
3566;DHT22;1797;51.844;7.684;2023-03-14T15:06:39;7.40;99.90
3566;DHT22;1797;51.844;7.684;2023-03-14T15:09:05;7.40;99.90
3566;DHT22;1797;51.844;7.684;2023-03-14T15:11:31;7.40;99.90
3566;DHT22;1797;51.844;7.684;2023-03-14T15:13:57;7.40;99.90
3566;DHT22;1797;51.844;7.684;2023-03-14T15:16:27;7.40;99.90
3566;DHT22;1797;51.844;7.684;2023-03-14T15:18:56;7.40;99.90
3566;DHT22;1797;51.844;7.684;2023-03-14T15:21:23;7.40;99.90
3566;DHT22;1797;51.844;7.684;2023-03-14T15:23:49;7.50;99.90
3566;DHT22;1797;51.844;7.684;2023-03-14T15:26:20;7.60;99.90
3566;DHT22;1797;51.844;7.684;2023-03-14T15:28:47;7.70;99.90
3566;DHT22;1797;51.844;7.684;2023-03-14T15:31:13;7.70;99.90
3566;DHT22;1797;51.844;7.684;2023-03-14T15:33:40;7.80;99.90
3566;DHT22;1797;51.844;7.684;2023-03-14T15:36:19;7.90;99.90
3566;DHT22;1797;51.844;7.684;2023-03-14T15:38:45;8.00;99.90
3566;DHT22;1797;51.844;7.684;2023-03-14T15:41:10;8.00;99.90
3566;DHT22;1797;51.844;7.684;2023-03-14T15:43:36;8.10;99.90
3566;DHT22;1797;51.844;7.684;2023-03-14T15:46:01;8.10;99.90
3566;DHT22;1797;51.844;7.684;2023-03-14T15:48:27;8.10;99.90
3566;DHT22;1797;51.844;7.684;2023-03-14T15:50:52;8.10;99.90
3566;DHT22;1797;51.844;7.684;2023-03-14T15:53:18;8.10;99.90
3566;DHT22;1797;51.844;7.684;2023-03-14T15:55:43;8.10;99.90
3566;DHT22;1797;51.844;7.684;2023-03-14T15:58:17;8.10;99.90
3566;DHT22;1797;51.844;7.684;2023-03-14T16:00:43;8.10;99.90
3566;DHT22;1797;51.844;7.684;2023-03-14T16:03:09;7.90;99.90
3566;DHT22;1797;51.844;7.684;2023-03-14T16:05:36;7.60;99.90
3566;DHT22;1797;51.844;7.684;2023-03-14T16:08:01;7.50;99.90
3566;DHT22;1797;51.844;7.684;2023-03-14T16:10:28;7.30;99.90
3566;DHT22;1797;51.844;7.684;2023-03-14T16:12:54;7.20;99.90
3566;DHT22;1797;51.844;7.684;2023-03-14T16:15:20;7.20;99.90
3566;DHT22;1797;51.844;7.684;2023-03-14T16:17:45;7.20;99.90
3566;DHT22;1797;51.844;7.684;2023-03-14T16:20:11;7.20;99.90
3566;DHT22;1797;51.844;7.684;2023-03-14T16:22:37;7.20;99.90
3566;DHT22;1797;51.844;7.684;2023-03-14T16:25:04;7.00;99.90
3566;DHT22;1797;51.844;7.684;2023-03-14T16:27:30;6.90;99.90
3566;DHT22;1797;51.844;7.684;2023-03-14T16:29:57;6.80;99.90
3566;DHT22;1797;51.844;7.684;2023-03-14T16:32:25;6.70;99.90
3566;DHT22;1797;51.844;7.684;2023-03-14T16:34:50;6.70;99.90
3566;DHT22;1797;51.844;7.684;2023-03-14T16:37:16;6.70;99.90
3566;DHT22;1797;51.844;7.684;2023-03-14T16:39:42;6.70;99.90
3566;DHT22;1797;51.844;7.684;2023-03-14T16:42:08;6.70;99.90
3566;DHT22;1797;51.844;7.684;2023-03-14T16:44:33;6.60;99.90
3566;DHT22;1797;51.844;7.684;2023-03-14T16:46:59;6.50;99.90
3566;DHT22;1797;51.844;7.684;2023-03-14T16:49:24;6.40;99.90
3566;DHT22;1797;51.844;7.684;2023-03-14T16:51:50;6.30;99.90
3566;DHT22;1797;51.844;7.684;2023-03-14T16:54:15;6.40;99.90
3566;DHT22;1797;51.844;7.684;2023-03-14T16:56:41;6.30;99.90
3566;DHT22;1797;51.844;7.684;2023-03-14T16:59:07;6.30;99.90
3566;DHT22;1797;51.844;7.684;2023-03-14T17:01:32;6.20;99.90
3566;DHT22;1797;51.844;7.684;2023-03-14T17:03:58;6.20;99.90
3566;DHT22;1797;51.844;7.684;2023-03-14T17:06:25;6.20;99.90
3566;DHT22;1797;51.844;7.684;2023-03-14T17:08:53;6.20;99.90
3566;DHT22;1797;51.844;7.684;2023-03-14T17:11:19;6.10;99.90
3566;DHT22;1797;51.844;7.684;2023-03-14T17:13:45;6.10;99.90
3566;DHT22;1797;51.844;7.684;2023-03-14T17:16:12;6.00;99.90
3566;DHT22;1797;51.844;7.684;2023-03-14T17:18:38;6.00;99.90
3566;DHT22;1797;51.844;7.684;2023-03-14T17:21:04;6.00;99.90
3566;DHT22;1797;51.844;7.684;2023-03-14T17:23:31;6.00;99.90
3566;DHT22;1797;51.844;7.684;2023-03-14T17:25:57;6.00;99.90